Time;durP1;ratioP1;P1;durP2;ratioP2;P2;SDS_P1;SDS_P2;PMS_P1;PMS_P2;Temp;Humidity;BMP_temperature;BMP_pressure;BME280_temperature;BME280_humidity;BME280_pressure;Samples;Min_cycle;Max_cycle;Signal;HPM_P1;HPM_P2
2022/11/30 00:00:29;;;;;;;0.60;0.60;;;8.10;99.90;;;;;;4959595;28;20549;-82
2022/11/30 00:02:58;;;;;;;0.60;0.60;;;8.00;99.90;;;;;;4948017;28;20056;-82
2022/11/30 00:05:23;;;;;;;0.60;0.60;;;8.00;99.90;;;;;;4956661;28;20166;-82
2022/11/30 00:07:50;;;;;;;0.60;0.60;;;8.10;99.90;;;;;;4936623;28;20052;-82
2022/11/30 00:10:16;;;;;;;0.60;0.60;;;8.00;99.90;;;;;;4954267;28;20075;-82
2022/11/30 00:12:42;;;;;;;0.60;0.60;;;8.00;99.90;;;;;;4950173;28;20122;-83
2022/11/30 00:15:13;;;;;;;0.60;0.60;;;8.00;99.90;;;;;;4951603;28;20049;-82
2022/11/30 00:17:43;;;;;;;0.70;0.70;;;8.10;99.90;;;;;;4946179;28;20059;-82
2022/11/30 00:20:09;;;;;;;0.60;0.60;;;8.10;99.90;;;;;;4950712;28;20460;-82
2022/11/30 00:22:35;;;;;;;0.60;0.60;;;8.00;99.90;;;;;;4939249;28;20476;-83
2022/11/30 00:25:03;;;;;;;0.70;0.70;;;8.10;99.90;;;;;;4957550;28;20048;-82
2022/11/30 00:27:30;;;;;;;0.60;0.60;;;8.00;99.90;;;;;;4945239;28;20161;-82
2022/11/30 00:29:57;;;;;;;0.60;0.60;;;8.00;99.90;;;;;;4954675;28;20552;-83
2022/11/30 00:32:23;;;;;;;0.60;0.60;;;8.00;99.90;;;;;;4945898;28;20047;-82
2022/11/30 00:34:49;;;;;;;0.60;0.60;;;7.90;99.90;;;;;;4954627;28;20048;-83
2022/11/30 00:37:15;;;;;;;0.60;0.60;;;7.90;99.90;;;;;;4940825;28;20052;-83
2022/11/30 00:39:41;;;;;;;0.60;0.60;;;7.90;99.90;;;;;;4938593;28;20507;-82
2022/11/30 00:42:06;;;;;;;0.60;0.60;;;8.00;99.90;;;;;;4951577;28;20060;-82
2022/11/30 00:44:32;;;;;;;0.60;0.60;;;8.00;99.90;;;;;;4950855;28;20232;-82
2022/11/30 00:46:58;;;;;;;0.60;0.60;;;7.90;99.90;;;;;;4954464;28;20637;-82
2022/11/30 00:49:24;;;;;;;0.60;0.60;;;7.90;99.90;;;;;;4955520;28;20589;-82
2022/11/30 00:51:49;;;;;;;0.60;0.60;;;7.90;99.90;;;;;;4950028;28;20485;-82
2022/11/30 00:54:15;;;;;;;0.60;0.60;;;7.80;99.90;;;;;;4973944;28;20041;-82
2022/11/30 00:56:41;;;;;;;0.60;0.60;;;7.90;99.90;;;;;;4949172;28;20087;-81
2022/11/30 00:59:07;;;;;;;0.60;0.60;;;7.90;99.90;;;;;;4952769;28;20063;-82
2022/11/30 01:01:33;;;;;;;0.60;0.60;;;7.90;99.90;;;;;;4952773;28;20044;-82
2022/11/30 01:03:58;;;;;;;0.60;0.60;;;7.80;99.90;;;;;;4955462;28;20044;-82
2022/11/30 01:06:24;;;;;;;0.60;0.60;;;7.90;99.90;;;;;;4955685;28;20490;-82
2022/11/30 01:08:50;;;;;;;0.60;0.60;;;7.90;99.90;;;;;;4954588;28;20078;-82
2022/11/30 01:11:20;;;;;;;0.60;0.60;;;7.80;99.90;;;;;;4952661;28;23660;-82
2022/11/30 01:13:46;;;;;;;0.60;0.60;;;7.90;99.90;;;;;;4953485;28;20162;-82
2022/11/30 01:16:15;;;;;;;0.60;0.60;;;7.90;99.90;;;;;;4951013;28;20298;-82
2022/11/30 01:18:42;;;;;;;0.60;0.60;;;7.80;99.90;;;;;;4944907;28;20048;-82
2022/11/30 01:21:12;;;;;;;0.60;0.60;;;7.90;99.90;;;;;;4969572;28;20439;-82
2022/11/30 01:23:38;;;;;;;0.60;0.60;;;7.90;99.90;;;;;;4954702;28;20049;-82
2022/11/30 01:26:04;;;;;;;0.60;0.60;;;8.00;99.90;;;;;;4939315;28;20052;-82
2022/11/30 01:28:30;;;;;;;0.60;0.60;;;7.90;99.90;;;;;;4951709;28;20551;-82
2022/11/30 01:31:04;;;;;;;0.60;0.60;;;7.80;99.90;;;;;;4935542;28;20109;-82
2022/11/30 01:33:30;;;;;;;0.60;0.60;;;7.90;99.90;;;;;;4963358;28;20059;-82
2022/11/30 01:36:04;;;;;;;0.60;0.60;;;7.90;99.90;;;;;;4938976;28;20091;-82
2022/11/30 01:38:32;;;;;;;0.60;0.60;;;7.80;99.90;;;;;;4961420;28;20599;-81
2022/11/30 01:40:58;;;;;;;0.60;0.60;;;7.80;99.90;;;;;;4977431;28;20692;-82
2022/11/30 01:43:54;;;;;;;0.60;0.60;;;7.90;99.90;;;;;;4958690;28;20414;-82
2022/11/30 01:46:41;;;;;;;0.60;0.60;;;7.70;99.90;;;;;;4951942;28;20131;-82
2022/11/30 01:49:10;;;;;;;0.60;0.60;;;7.70;99.90;;;;;;4974241;28;20051;-81
2022/11/30 01:51:52;;;;;;;0.60;0.60;;;7.80;99.90;;;;;;4981675;28;20686;-81
2022/11/30 01:54:31;;;;;;;0.60;0.60;;;7.80;99.90;;;;;;4962848;28;20063;-82
2022/11/30 01:57:08;;;;;;;0.60;0.60;;;7.80;99.90;;;;;;4958113;28;20525;-81
2022/11/30 01:59:34;;;;;;;0.60;0.60;;;7.80;99.90;;;;;;4955819;28;20103;-82
2022/11/30 02:02:00;;;;;;;0.60;0.60;;;7.80;99.90;;;;;;4963748;28;20590;-82
2022/11/30 02:04:29;;;;;;;0.60;0.60;;;7.80;99.90;;;;;;4943174;28;20104;-82
2022/11/30 02:06:57;;;;;;;0.65;0.65;;;7.90;99.90;;;;;;4970946;28;20134;-82
2022/11/30 02:09:23;;;;;;;0.60;0.60;;;7.80;99.90;;;;;;4942352;28;20799;-82
2022/11/30 02:11:49;;;;;;;0.60;0.60;;;7.70;99.90;;;;;;4955991;28;20311;-82
2022/11/30 02:14:17;;;;;;;0.60;0.60;;;7.80;99.90;;;;;;4955169;28;20588;-82
2022/11/30 02:16:52;;;;;;;0.60;0.60;;;7.80;99.90;;;;;;4963374;28;20063;-82
2022/11/30 02:19:37;;;;;;;0.60;0.60;;;7.70;99.90;;;;;;4958409;28;20056;-82
2022/11/30 02:22:09;;;;;;;0.63;0.63;;;7.80;99.90;;;;;;4956752;28;20052;-81
2022/11/30 02:25:04;;;;;;;0.60;0.60;;;7.80;99.90;;;;;;4954923;28;20095;-82
2022/11/30 02:27:46;;;;;;;0.60;0.60;;;7.70;99.90;;;;;;4930176;28;20952;-82
2022/11/30 02:30:18;;;;;;;0.60;0.60;;;7.70;99.90;;;;;;4956705;28;20064;-82
2022/11/30 02:33:10;;;;;;;0.60;0.60;;;7.80;99.90;;;;;;4950760;28;20036;-81
2022/11/30 02:35:39;;;;;;;0.60;0.60;;;7.80;99.90;;;;;;4958975;28;20583;-82
2022/11/30 02:38:05;;;;;;;0.60;0.60;;;7.80;99.90;;;;;;4959396;28;20052;-81
2022/11/30 02:40:31;;;;;;;0.60;0.60;;;7.70;99.90;;;;;;4958102;28;20051;-81
2022/11/30 02:43:00;;;;;;;0.60;0.60;;;7.70;99.90;;;;;;4953676;28;20037;-82
2022/11/30 02:45:39;;;;;;;0.60;0.60;;;7.90;99.90;;;;;;4946223;28;20087;-81
2022/11/30 02:48:10;;;;;;;0.60;0.60;;;7.80;99.90;;;;;;4958067;28;20663;-82
2022/11/30 02:50:38;;;;;;;0.60;0.60;;;7.70;99.90;;;;;;4970401;28;20690;-81
2022/11/30 02:53:05;;;;;;;0.60;0.60;;;7.80;99.90;;;;;;4971828;28;20076;-81
2022/11/30 02:55:31;;;;;;;0.60;0.60;;;7.80;99.90;;;;;;4966759;28;20136;-82
2022/11/30 02:57:56;;;;;;;0.60;0.60;;;7.80;99.90;;;;;;4959113;28;20045;-81
2022/11/30 03:00:22;;;;;;;0.60;0.60;;;7.80;99.90;;;;;;4960048;28;20422;-81
2022/11/30 03:02:48;;;;;;;0.60;0.60;;;7.70;99.90;;;;;;4963381;28;20572;-81
2022/11/30 03:05:14;;;;;;;0.60;0.60;;;7.60;99.90;;;;;;4967813;28;20060;-81
2022/11/30 03:07:40;;;;;;;0.70;0.70;;;7.70;99.90;;;;;;4966124;28;20422;-82
2022/11/30 03:10:07;;;;;;;0.60;0.60;;;7.80;99.90;;;;;;4959871;28;20048;-82
2022/11/30 03:12:33;;;;;;;0.60;0.60;;;7.70;99.90;;;;;;4957237;28;20049;-82
2022/11/30 03:14:58;;;;;;;0.60;0.60;;;7.70;99.90;;;;;;4953583;28;20055;-81
2022/11/30 03:17:24;;;;;;;0.60;0.60;;;7.80;99.90;;;;;;4961550;28;20049;-81
2022/11/30 03:19:50;;;;;;;0.60;0.60;;;7.70;99.90;;;;;;4964176;28;20051;-82
2022/11/30 03:22:16;;;;;;;0.60;0.60;;;7.80;99.90;;;;;;4931758;28;20046;-82
2022/11/30 03:24:41;;;;;;;0.60;0.60;;;7.70;99.90;;;;;;4940451;28;20079;-82
2022/11/30 03:27:07;;;;;;;0.60;0.60;;;7.80;99.90;;;;;;4955392;28;20087;-81
2022/11/30 03:29:33;;;;;;;0.60;0.60;;;7.70;99.90;;;;;;4956453;28;20405;-82
2022/11/30 03:31:59;;;;;;;0.60;0.60;;;7.80;99.90;;;;;;4954155;28;21907;-82
2022/11/30 03:34:26;;;;;;;0.60;0.60;;;7.60;99.90;;;;;;4926547;28;20572;-82
2022/11/30 03:36:52;;;;;;;0.60;0.60;;;7.70;99.90;;;;;;4960855;28;20599;-82
2022/11/30 03:39:18;;;;;;;0.60;0.60;;;7.70;99.90;;;;;;4960002;28;20490;-82
2022/11/30 03:41:44;;;;;;;0.60;0.60;;;7.70;99.90;;;;;;4939807;28;20044;-82
2022/11/30 03:44:09;;;;;;;0.60;0.60;;;7.60;99.90;;;;;;4960240;28;20058;-81
2022/11/30 03:46:35;;;;;;;1.15;0.70;;;7.70;99.90;;;;;;4963042;28;20322;-82
2022/11/30 03:49:02;;;;;;;0.60;0.60;;;7.60;99.90;;;;;;4938641;28;20839;-81
2022/11/30 03:51:27;;;;;;;0.60;0.60;;;7.70;99.90;;;;;;4960880;28;20159;-82
2022/11/30 03:53:53;;;;;;;0.60;0.60;;;7.70;99.90;;;;;;4961263;28;20053;-83
2022/11/30 03:56:19;;;;;;;0.60;0.60;;;7.70;99.90;;;;;;4937570;28;20056;-82
2022/11/30 03:58:45;;;;;;;0.60;0.60;;;7.70;99.90;;;;;;4936302;28;20040;-82
2022/11/30 04:01:18;;;;;;;0.60;0.60;;;7.70;99.90;;;;;;4920099;28;20404;-81
2022/11/30 04:03:43;;;;;;;0.60;0.60;;;7.70;99.90;;;;;;4954877;28;20086;-82
2022/11/30 04:06:11;;;;;;;0.60;0.60;;;7.60;99.90;;;;;;4957560;28;20041;-82
2022/11/30 04:08:38;;;;;;;0.60;0.60;;;7.60;99.90;;;;;;4961862;28;20648;-82
2022/11/30 04:11:05;;;;;;;0.60;0.60;;;7.60;99.90;;;;;;4957036;28;20477;-82
2022/11/30 04:13:32;;;;;;;0.60;0.60;;;7.60;99.90;;;;;;4956683;28;20051;-83
2022/11/30 04:15:58;;;;;;;0.55;0.55;;;7.60;99.90;;;;;;4955069;28;20056;-82
2022/11/30 04:18:26;;;;;;;0.60;0.60;;;7.70;99.90;;;;;;4956449;28;20188;-81
2022/11/30 04:20:56;;;;;;;0.60;0.60;;;7.60;99.90;;;;;;4952864;28;20935;-82
2022/11/30 04:23:23;;;;;;;1.23;1.23;;;7.70;99.90;;;;;;4955098;28;20056;-82
2022/11/30 04:25:50;;;;;;;0.60;0.60;;;7.70;99.90;;;;;;4953912;28;20123;-82
2022/11/30 04:28:17;;;;;;;0.60;0.60;;;7.70;99.90;;;;;;4967203;28;21014;-82
2022/11/30 04:30:43;;;;;;;0.60;0.60;;;7.70;99.90;;;;;;4979260;28;20490;-82
2022/11/30 04:33:09;;;;;;;0.60;0.60;;;7.60;99.90;;;;;;4962461;28;20503;-82
2022/11/30 04:35:40;;;;;;;0.60;0.60;;;7.70;99.90;;;;;;4969932;28;20309;-82
2022/11/30 04:38:06;;;;;;;0.60;0.60;;;7.70;99.90;;;;;;4956259;28;20565;-82
2022/11/30 04:40:32;;;;;;;0.60;0.60;;;7.60;99.90;;;;;;4972328;28;20048;-82
2022/11/30 04:42:57;;;;;;;0.60;0.60;;;7.70;99.90;;;;;;4949500;28;20457;-81
2022/11/30 04:45:23;;;;;;;0.60;0.60;;;7.60;99.90;;;;;;4940177;28;20458;-81
2022/11/30 04:47:49;;;;;;;0.60;0.60;;;7.50;99.90;;;;;;4954337;28;20130;-82
2022/11/30 04:50:15;;;;;;;0.60;0.60;;;7.50;99.90;;;;;;4950523;28;20437;-81
2022/11/30 04:52:41;;;;;;;0.60;0.60;;;7.40;99.90;;;;;;4957105;28;20536;-82
2022/11/30 04:55:07;;;;;;;0.60;0.60;;;7.50;99.90;;;;;;4952837;28;20098;-81
2022/11/30 04:57:33;;;;;;;0.60;0.60;;;7.50;99.90;;;;;;4955372;28;20596;-82
2022/11/30 04:59:59;;;;;;;0.60;0.60;;;7.50;99.90;;;;;;4954952;28;20054;-82
2022/11/30 05:02:24;;;;;;;0.60;0.60;;;7.50;99.90;;;;;;4952235;28;20084;-82
2022/11/30 05:04:50;;;;;;;0.60;0.60;;;7.50;99.90;;;;;;4959345;28;20405;-82
2022/11/30 05:07:16;;;;;;;0.60;0.60;;;7.50;99.90;;;;;;4951432;28;20072;-82
2022/11/30 05:09:42;;;;;;;0.60;0.60;;;7.60;99.90;;;;;;4955483;28;20040;-82
2022/11/30 05:12:08;;;;;;;0.60;0.60;;;7.60;99.90;;;;;;4947685;28;20135;-82
2022/11/30 05:14:33;;;;;;;0.60;0.60;;;7.50;99.90;;;;;;4969053;28;20048;-82
2022/11/30 05:16:59;;;;;;;0.60;0.60;;;7.60;99.90;;;;;;4957024;28;20091;-82
2022/11/30 05:19:25;;;;;;;0.60;0.60;;;7.50;99.90;;;;;;4954084;28;20494;-82
2022/11/30 05:21:50;;;;;;;0.65;0.65;;;7.50;99.90;;;;;;4961452;28;20121;-82
2022/11/30 05:24:17;;;;;;;0.70;0.70;;;7.60;99.90;;;;;;4925455;28;20183;-81
2022/11/30 05:26:43;;;;;;;0.60;0.60;;;7.60;99.90;;;;;;4962210;28;20055;-82
2022/11/30 05:29:09;;;;;;;0.60;0.60;;;7.60;99.90;;;;;;4964892;28;20381;-82
2022/11/30 05:31:37;;;;;;;0.60;0.60;;;7.60;99.90;;;;;;4960237;28;20490;-82
2022/11/30 05:34:03;;;;;;;0.60;0.60;;;7.50;99.90;;;;;;4931237;28;20504;-82
2022/11/30 05:36:29;;;;;;;0.60;0.60;;;7.50;99.90;;;;;;4938428;28;20923;-82
2022/11/30 05:38:55;;;;;;;0.60;0.60;;;7.40;99.90;;;;;;4958499;28;20047;-82
2022/11/30 05:41:20;;;;;;;0.60;0.60;;;7.50;99.90;;;;;;4962771;28;20052;-82
2022/11/30 05:43:46;;;;;;;0.60;0.60;;;7.50;99.90;;;;;;4962638;28;20044;-82
2022/11/30 05:46:12;;;;;;;0.60;0.60;;;7.40;99.90;;;;;;4944108;28;20040;-81
2022/11/30 05:48:38;;;;;;;0.60;0.60;;;7.50;99.90;;;;;;4965493;28;20056;-81
2022/11/30 05:51:09;;;;;;;0.60;0.60;;;7.50;99.90;;;;;;4969255;28;20440;-82
2022/11/30 05:53:35;;;;;;;0.60;0.60;;;7.40;99.90;;;;;;4944353;28;20057;-82
2022/11/30 05:56:06;;;;;;;0.60;0.60;;;7.40;99.90;;;;;;4959827;28;20047;-82
2022/11/30 05:58:32;;;;;;;0.60;0.60;;;7.40;99.90;;;;;;4957826;28;20080;-82
2022/11/30 06:00:58;;;;;;;0.60;0.60;;;7.30;99.90;;;;;;4956325;28;20048;-82
2022/11/30 06:03:24;;;;;;;0.60;0.60;;;7.40;99.90;;;;;;4951555;28;20130;-81
2022/11/30 06:05:50;;;;;;;0.60;0.60;;;7.30;99.90;;;;;;4954579;28;20044;-82
2022/11/30 06:08:17;;;;;;;0.60;0.60;;;7.30;99.90;;;;;;4944415;28;20044;-82
2022/11/30 06:10:43;;;;;;;0.60;0.60;;;7.20;99.90;;;;;;4960094;28;20121;-81
2022/11/30 06:13:08;;;;;;;0.60;0.60;;;7.30;99.90;;;;;;4956473;28;20056;-80
2022/11/30 06:15:38;;;;;;;0.60;0.60;;;7.30;99.90;;;;;;4955995;28;20728;-81
2022/11/30 06:18:05;;;;;;;0.60;0.60;;;7.30;99.90;;;;;;4957940;28;20147;-81
2022/11/30 06:20:31;;;;;;;0.60;0.60;;;7.20;99.90;;;;;;4947380;28;20683;-82
2022/11/30 06:23:00;;;;;;;0.60;0.60;;;7.30;99.90;;;;;;4964795;28;21289;-83
2022/11/30 06:25:26;;;;;;;0.55;0.55;;;7.30;99.90;;;;;;4962115;28;20391;-82
2022/11/30 06:27:52;;;;;;;0.60;0.60;;;7.30;99.90;;;;;;4957460;28;20056;-82
2022/11/30 06:30:18;;;;;;;0.60;0.60;;;7.30;99.90;;;;;;4959443;28;20049;-81
2022/11/30 06:32:45;;;;;;;0.60;0.60;;;7.30;99.90;;;;;;4955075;28;20040;-81
2022/11/30 06:35:11;;;;;;;0.60;0.60;;;7.30;99.90;;;;;;4959469;28;20208;-81
2022/11/30 06:37:37;;;;;;;0.60;0.60;;;7.30;99.90;;;;;;4957491;28;20083;-81
2022/11/30 06:40:04;;;;;;;0.60;0.60;;;7.20;99.90;;;;;;4963588;28;20520;-81
2022/11/30 06:42:31;;;;;;;0.60;0.60;;;7.30;99.90;;;;;;4957985;28;20051;-81
2022/11/30 06:44:56;;;;;;;0.60;0.60;;;7.30;99.90;;;;;;4937936;28;20076;-82
2022/11/30 06:47:23;;;;;;;0.60;0.60;;;7.20;99.90;;;;;;4957727;28;20109;-81
2022/11/30 06:49:49;;;;;;;0.60;0.60;;;7.10;99.90;;;;;;4959530;28;20751;-82
2022/11/30 06:52:14;;;;;;;0.60;0.60;;;7.30;99.90;;;;;;4958332;28;20093;-81
2022/11/30 06:54:40;;;;;;;0.60;0.60;;;7.40;99.90;;;;;;4951509;28;20049;-81
2022/11/30 06:57:06;;;;;;;0.60;0.60;;;7.20;99.90;;;;;;4967759;28;20632;-81
2022/11/30 06:59:31;;;;;;;5.78;3.33;;;7.20;99.90;;;;;;4955204;28;20057;-82
2022/11/30 07:01:57;;;;;;;0.60;0.60;;;7.30;99.90;;;;;;4941240;28;20059;-81
2022/11/30 07:04:23;;;;;;;0.60;0.60;;;7.30;99.90;;;;;;4957007;28;20064;-82
2022/11/30 07:06:49;;;;;;;0.60;0.60;;;7.20;99.90;;;;;;4955392;28;20048;-81
2022/11/30 07:09:14;;;;;;;0.60;0.60;;;7.20;99.90;;;;;;4942624;28;20469;-81
2022/11/30 07:11:40;;;;;;;0.60;0.60;;;7.30;99.90;;;;;;4944710;28;20418;-82
2022/11/30 07:14:06;;;;;;;0.60;0.60;;;7.30;99.90;;;;;;4944453;28;20109;-82
2022/11/30 07:16:32;;;;;;;0.60;0.60;;;7.20;99.90;;;;;;4962241;28;20055;-82
2022/11/30 07:18:57;;;;;;;0.60;0.60;;;7.20;99.90;;;;;;4958869;28;20047;-82
2022/11/30 07:21:23;;;;;;;0.65;0.65;;;7.30;99.90;;;;;;4957227;28;20048;-82
2022/11/30 07:26:33;;;;;;;0.60;0.60;;;7.20;99.90;;;;;;4940777;28;20444;-82
2022/11/30 07:28:59;;;;;;;0.60;0.60;;;7.20;99.90;;;;;;4957794;28;20433;-82
2022/11/30 07:31:30;;;;;;;0.60;0.60;;;7.20;99.90;;;;;;4962979;28;20771;-82
2022/11/30 07:34:01;;;;;;;0.60;0.60;;;7.10;99.90;;;;;;4959184;28;20572;-81
2022/11/30 07:36:29;;;;;;;0.60;0.60;;;7.10;99.90;;;;;;4938974;28;20490;-81
2022/11/30 07:38:55;;;;;;;0.60;0.60;;;7.10;99.90;;;;;;4956795;28;20642;-82
2022/11/30 07:41:20;;;;;;;0.60;0.60;;;7.20;99.90;;;;;;4957756;28;20055;-82
2022/11/30 07:43:46;;;;;;;0.60;0.60;;;7.30;99.90;;;;;;4926788;28;20071;-80
2022/11/30 07:46:14;;;;;;;0.60;0.60;;;7.30;99.90;;;;;;4956664;28;20949;-81
2022/11/30 07:48:40;;;;;;;0.60;0.60;;;7.20;99.90;;;;;;4960341;28;20056;-82
2022/11/30 07:51:10;;;;;;;0.60;0.60;;;7.30;99.90;;;;;;4942103;28;20460;-82
2022/11/30 07:53:36;;;;;;;0.60;0.60;;;7.30;99.90;;;;;;4956476;28;20464;-83
2022/11/30 07:56:07;;;;;;;0.60;0.60;;;7.30;99.90;;;;;;4957158;28;20453;-83
2022/11/30 07:58:33;;;;;;;0.60;0.60;;;7.20;99.90;;;;;;4952483;28;20051;-82
2022/11/30 08:01:07;;;;;;;0.60;0.60;;;7.20;99.90;;;;;;4958564;28;20286;-82
2022/11/30 08:03:35;;;;;;;0.60;0.60;;;7.30;99.90;;;;;;4957696;28;20460;-82
2022/11/30 08:06:06;;;;;;;0.60;0.60;;;7.20;99.90;;;;;;4954546;28;20256;-81
2022/11/30 08:08:34;;;;;;;0.60;0.60;;;7.10;99.90;;;;;;4961493;28;20614;-81
2022/11/30 08:11:01;;;;;;;0.60;0.60;;;7.10;99.90;;;;;;4971517;28;20945;-81
2022/11/30 08:13:27;;;;;;;0.60;0.60;;;7.10;99.90;;;;;;4958662;28;20518;-81
2022/11/30 08:16:01;;;;;;;0.60;0.60;;;7.10;99.90;;;;;;4958729;28;20130;-82
2022/11/30 08:18:26;;;;;;;0.60;0.60;;;7.00;99.90;;;;;;4966688;28;20054;-82
2022/11/30 08:21:00;;;;;;;0.60;0.60;;;7.10;99.90;;;;;;4961330;28;20460;-82
2022/11/30 08:23:40;;;;;;;0.60;0.60;;;7.00;99.90;;;;;;4942431;28;20780;-82
2022/11/30 08:26:12;;;;;;;0.60;0.60;;;7.20;99.90;;;;;;4962334;28;20156;-82
2022/11/30 08:28:39;;;;;;;0.60;0.60;;;7.10;99.90;;;;;;4963663;28;20096;-82
2022/11/30 08:31:07;;;;;;;0.60;0.60;;;7.00;99.90;;;;;;4954171;28;20816;-83
2022/11/30 08:33:34;;;;;;;0.77;0.77;;;7.20;99.90;;;;;;4957968;28;20050;-83
2022/11/30 08:36:15;;;;;;;0.60;0.60;;;7.20;99.90;;;;;;4956492;28;20048;-82
2022/11/30 08:38:42;;;;;;;0.60;0.60;;;7.30;99.90;;;;;;4951611;28;20041;-81
2022/11/30 08:41:11;;;;;;;0.68;0.68;;;7.20;99.90;;;;;;4958608;28;20908;-82
2022/11/30 08:43:37;;;;;;;0.60;0.60;;;7.20;99.90;;;;;;4954651;28;20443;-82
2022/11/30 08:46:06;;;;;;;0.60;0.60;;;7.20;99.90;;;;;;4964310;28;20044;-82
2022/11/30 08:48:33;;;;;;;0.60;0.60;;;7.20;99.90;;;;;;4961575;28;20521;-82
2022/11/30 08:51:04;;;;;;;0.60;0.60;;;7.20;99.90;;;;;;4963217;28;20629;-83
2022/11/30 08:53:31;;;;;;;0.60;0.60;;;7.20;99.90;;;;;;4959434;28;20044;-82
2022/11/30 08:55:58;;;;;;;0.60;0.60;;;7.20;99.90;;;;;;4956859;28;21073;-82
2022/11/30 08:58:26;;;;;;;0.60;0.60;;;7.10;99.90;;;;;;4963584;28;20577;-82
2022/11/30 09:00:52;;;;;;;0.60;0.60;;;7.20;99.90;;;;;;4943585;28;20059;-85
2022/11/30 09:03:18;;;;;;;0.60;0.60;;;7.20;99.90;;;;;;4940784;28;20479;-83
2022/11/30 09:05:44;;;;;;;0.60;0.60;;;7.20;99.90;;;;;;4961519;28;20808;-81
2022/11/30 09:08:10;;;;;;;0.60;0.60;;;7.20;99.90;;;;;;4945886;28;20060;-82
2022/11/30 09:10:35;;;;;;;0.60;0.60;;;7.20;99.90;;;;;;4956426;28;20083;-82
2022/11/30 09:13:01;;;;;;;0.60;0.60;;;7.10;99.90;;;;;;4945619;28;20044;-82
2022/11/30 09:15:27;;;;;;;0.60;0.60;;;7.10;99.90;;;;;;4961246;28;20705;-82
2022/11/30 09:17:52;;;;;;;0.60;0.60;;;7.20;99.90;;;;;;4941977;28;20079;-81
2022/11/30 09:20:18;;;;;;;0.60;0.60;;;7.20;99.90;;;;;;4961397;28;20663;-83
2022/11/30 09:22:44;;;;;;;0.60;0.60;;;7.20;99.90;;;;;;4959033;28;20047;-83
2022/11/30 09:25:10;;;;;;;0.60;0.60;;;7.10;99.90;;;;;;4944476;28;20049;-84
2022/11/30 09:27:36;;;;;;;0.60;0.60;;;7.20;99.90;;;;;;4963151;28;20504;-82
2022/11/30 09:30:01;;;;;;;0.60;0.60;;;7.20;99.90;;;;;;4961356;28;20570;-82
2022/11/30 09:32:28;;;;;;;0.60;0.60;;;7.30;99.90;;;;;;4963699;28;20389;-83
2022/11/30 09:34:54;;;;;;;1.08;1.08;;;7.30;99.90;;;;;;4965094;28;21008;-81
2022/11/30 09:37:21;;;;;;;0.60;0.60;;;7.30;99.90;;;;;;4964165;28;20057;-82
2022/11/30 09:39:46;;;;;;;0.60;0.60;;;7.30;99.90;;;;;;4931760;28;20052;-83
2022/11/30 09:42:42;;;;;;;0.60;0.60;;;7.40;99.90;;;;;;4959690;28;20052;-81
2022/11/30 09:45:23;;;;;;;0.60;0.60;;;7.40;99.90;;;;;;4956467;28;20537;-82
2022/11/30 09:48:01;;;;;;;0.60;0.60;;;7.40;99.90;;;;;;4976441;28;20147;-83
2022/11/30 09:50:31;;;;;;;0.60;0.60;;;7.40;99.90;;;;;;4964160;28;20253;-81
2022/11/30 09:53:02;;;;;;;0.60;0.60;;;7.20;99.90;;;;;;4956436;28;20497;-83
2022/11/30 09:55:40;;;;;;;0.60;0.60;;;7.40;99.90;;;;;;4956285;28;20044;-83
2022/11/30 09:58:19;;;;;;;0.60;0.60;;;7.50;99.90;;;;;;4959595;28;20052;-82
2022/11/30 10:00:44;;;;;;;0.60;0.60;;;7.40;99.90;;;;;;4943167;28;20446;-82
2022/11/30 10:03:11;;;;;;;0.60;0.60;;;7.30;99.90;;;;;;4960632;28;20047;-81
2022/11/30 10:06:11;;;;;;;0.60;0.60;;;7.30;99.90;;;;;;4956640;28;20427;-81
2022/11/30 10:09:01;;;;;;;0.60;0.60;;;7.40;99.90;;;;;;4959300;28;20044;-83
2022/11/30 10:12:01;;;;;;;0.60;0.60;;;7.40;99.90;;;;;;4973605;28;20513;-82
2022/11/30 10:14:45;;;;;;;0.60;0.60;;;7.30;99.90;;;;;;4925783;28;20080;-82
2022/11/30 10:17:39;;;;;;;0.60;0.60;;;7.30;99.90;;;;;;4942015;28;20056;-79
2022/11/30 10:20:20;;;;;;;0.60;0.60;;;7.30;99.90;;;;;;4955686;28;20298;-83
2022/11/30 10:23:14;;;;;;;0.60;0.60;;;7.30;99.90;;;;;;4961630;28;21015;-82
2022/11/30 10:25:57;;;;;;;0.60;0.60;;;7.20;99.90;;;;;;4967201;28;20048;-82
2022/11/30 10:28:38;;;;;;;0.70;0.70;;;7.30;99.90;;;;;;4964778;28;20778;-82
2022/11/30 10:31:09;;;;;;;0.60;0.60;;;7.40;99.90;;;;;;4963344;28;20394;-82
2022/11/30 10:33:47;;;;;;;0.60;0.60;;;7.30;99.90;;;;;;4957374;28;20568;-82
2022/11/30 10:36:32;;;;;;;0.60;0.60;;;7.30;99.90;;;;;;4960459;28;20044;-82
2022/11/30 10:39:13;;;;;;;0.60;0.60;;;7.40;99.90;;;;;;4947802;28;20045;-83
2022/11/30 10:41:59;;;;;;;0.60;0.60;;;7.40;99.90;;;;;;4958601;28;20530;-82
2022/11/30 10:44:33;;;;;;;0.60;0.60;;;7.40;99.90;;;;;;4961877;28;20118;-83
2022/11/30 10:47:21;;;;;;;0.70;0.70;;;7.30;99.90;;;;;;4956592;28;20063;-82
2022/11/30 10:49:49;;;;;;;0.70;0.70;;;7.40;99.90;;;;;;4960913;28;20109;-85
2022/11/30 10:52:50;;;;;;;0.60;0.60;;;7.40;99.90;;;;;;4946585;28;20052;-81
2022/11/30 10:55:33;;;;;;;0.60;0.60;;;7.40;99.90;;;;;;4950487;28;20138;-81
2022/11/30 10:58:08;;;;;;;0.60;0.60;;;7.50;99.90;;;;;;4944045;28;20055;-82
2022/11/30 11:00:34;;;;;;;0.60;0.60;;;7.20;99.90;;;;;;4957747;28;20106;-83
2022/11/30 11:03:00;;;;;;;0.60;0.60;;;7.30;99.90;;;;;;4936755;28;21300;-82
2022/11/30 11:05:28;;;;;;;0.60;0.60;;;7.20;99.90;;;;;;4955938;28;20059;-82
2022/11/30 11:07:55;;;;;;;0.60;0.60;;;7.20;99.90;;;;;;4961540;28;20051;-82
2022/11/30 11:10:43;;;;;;;0.60;0.60;;;7.30;99.90;;;;;;4940635;28;20118;-82
2022/11/30 11:13:39;;;;;;;0.60;0.60;;;7.40;99.90;;;;;;4958271;28;20048;-82
2022/11/30 11:16:08;;;;;;;0.60;0.60;;;7.50;99.90;;;;;;4940511;28;20277;-82
2022/11/30 11:18:36;;;;;;;0.70;0.70;;;7.50;99.90;;;;;;4953417;28;20079;-82
2022/11/30 11:21:03;;;;;;;0.60;0.60;;;7.40;99.90;;;;;;4960848;28;20051;-82
2022/11/30 11:23:39;;;;;;;0.70;0.70;;;7.40;99.90;;;;;;4957306;28;20181;-82
2022/11/30 11:26:13;;;;;;;0.60;0.60;;;7.40;99.90;;;;;;4946346;28;20056;-82
2022/11/30 11:28:43;;;;;;;0.60;0.60;;;7.40;99.90;;;;;;4952251;28;20490;-83
2022/11/30 11:31:35;;;;;;;0.60;0.60;;;7.30;99.90;;;;;;4941926;28;20958;-82
2022/11/30 11:34:02;;;;;;;0.70;0.70;;;7.40;99.90;;;;;;4936798;28;20133;-81
2022/11/30 11:36:30;;;;;;;0.60;0.60;;;7.40;99.90;;;;;;4946610;28;20560;-83
2022/11/30 11:38:56;;;;;;;0.60;0.60;;;7.50;99.90;;;;;;4959507;28;20088;-82
2022/11/30 11:41:34;;;;;;;0.60;0.60;;;7.60;99.90;;;;;;4954539;28;20556;-82
2022/11/30 11:44:08;;;;;;;0.60;0.60;;;7.60;99.90;;;;;;4956802;28;20561;-81
2022/11/30 11:46:36;;;;;;;;;;;7.40;99.90;;;;;;4958132;28;20047;-82
2022/11/30 11:49:04;;;;;;;0.60;0.60;;;7.50;99.90;;;;;;4959981;28;19924;-82
2022/11/30 11:51:38;;;;;;;0.60;0.60;;;7.60;99.90;;;;;;4961476;28;20051;-80
2022/11/30 11:54:26;;;;;;;0.60;0.60;;;7.50;99.90;;;;;;4962267;28;20295;-82
2022/11/30 11:56:54;;;;;;;0.60;0.60;;;7.70;99.90;;;;;;4953675;28;20052;-82
2022/11/30 11:59:41;;;;;;;0.60;0.60;;;7.50;99.90;;;;;;4960214;28;20510;-82
2022/11/30 12:02:06;;;;;;;0.60;0.60;;;7.60;99.90;;;;;;4961710;28;20048;-84
2022/11/30 12:04:46;;;;;;;0.60;0.60;;;7.60;99.90;;;;;;4959770;28;20048;-83
2022/11/30 12:07:34;;;;;;;0.60;0.60;;;7.50;99.90;;;;;;4953973;28;20048;-82
2022/11/30 12:10:14;;;;;;;0.60;0.60;;;7.50;99.90;;;;;;4956384;28;20055;-83
2022/11/30 12:12:40;;;;;;;0.60;0.60;;;7.50;99.90;;;;;;4955457;28;20036;-82
2022/11/30 12:15:13;;;;;;;0.60;0.60;;;7.50;99.90;;;;;;4950525;28;20044;-82
2022/11/30 12:18:06;;;;;;;0.70;0.70;;;7.50;99.90;;;;;;4957568;28;20048;-82
2022/11/30 12:20:52;;;;;;;0.60;0.60;;;7.50;99.90;;;;;;4953909;28;20528;-82
2022/11/30 12:23:43;;;;;;;0.70;0.70;;;7.60;99.90;;;;;;4959678;28;20090;-82
2022/11/30 12:26:19;;;;;;;0.60;0.60;;;7.50;99.90;;;;;;4959955;28;20143;-82
2022/11/30 12:29:16;;;;;;;0.60;0.60;;;7.50;99.90;;;;;;4956810;28;20502;-82
2022/11/30 12:32:04;;;;;;;0.60;0.60;;;7.60;99.90;;;;;;4952916;28;20051;-82
2022/11/30 12:34:44;;;;;;;0.60;0.60;;;7.70;99.90;;;;;;4960392;28;20056;-82
2022/11/30 12:37:28;;;;;;;0.60;0.60;;;7.60;99.90;;;;;;4959410;28;20044;-82
2022/11/30 12:40:12;;;;;;;;;;;7.50;99.90;;;;;;4959416;28;20040;-82
2022/11/30 12:42:46;;;;;;;0.60;0.60;;;7.50;99.90;;;;;;4956328;28;20408;-82
2022/11/30 12:45:24;;;;;;;0.60;0.60;;;7.60;99.90;;;;;;4962844;28;20719;-82
2022/11/30 12:48:07;;;;;;;0.60;0.60;;;7.50;99.90;;;;;;4957968;28;20064;-81
2022/11/30 12:50:58;;;;;;;0.60;0.60;;;7.40;99.90;;;;;;4959732;28;20071;-82
2022/11/30 12:53:30;;;;;;;0.60;0.60;;;7.40;99.90;;;;;;4955511;28;20617;-82
2022/11/30 12:56:26;;;;;;;0.60;0.60;;;7.30;99.90;;;;;;4958385;28;20102;-82
2022/11/30 12:59:23;;;;;;;0.70;0.70;;;7.30;99.90;;;;;;4958085;28;20488;-83
2022/11/30 13:02:07;;;;;;;0.60;0.60;;;7.20;99.90;;;;;;4956533;28;20151;-82
2022/11/30 13:04:43;;;;;;;0.60;0.60;;;7.30;99.90;;;;;;4958847;28;20849;-83
2022/11/30 13:07:28;;;;;;;0.60;0.60;;;7.40;99.90;;;;;;4941664;28;20467;-82
2022/11/30 13:10:18;;;;;;;0.60;0.60;;;7.40;99.90;;;;;;4956926;28;20075;-81
2022/11/30 13:12:49;;;;;;;0.60;0.60;;;7.50;99.90;;;;;;4960921;28;20625;-82
2022/11/30 13:15:22;;;;;;;0.63;0.63;;;7.40;99.90;;;;;;4953060;28;20772;-81
2022/11/30 13:17:49;;;;;;;0.60;0.60;;;7.40;99.90;;;;;;4973865;28;20059;-82